Time;durP1;ratioP1;P1;durP2;ratioP2;P2;SDS_P1;SDS_P2;PMS_P1;PMS_P2;Temp;Humidity;BMP_temperature;BMP_pressure;BME280_temperature;BME280_humidity;BME280_pressure;Samples;Min_cycle;Max_cycle;Signal;HPM_P1;HPM_P2
2022/08/21 00:00:50;;;;;;;;;;;20.80;82.20;;;;;;5079556;28;19943;-96
2022/08/21 00:03:16;;;;;;;;;;;20.90;81.70;;;;;;5060199;28;19953;-96
2022/08/21 00:05:46;;;;;;;;;;;20.90;82.10;;;;;;5078913;28;19958;-95
2022/08/21 00:08:12;;;;;;;;;;;21.00;82.30;;;;;;5061193;28;19948;-96
2022/08/21 00:10:39;;;;;;;;;;;20.90;82.40;;;;;;5061231;28;19961;-96
2022/08/21 00:13:06;;;;;;;;;;;20.80;82.60;;;;;;5061540;28;19944;-96
2022/08/21 00:15:33;;;;;;;;;;;20.70;83.00;;;;;;5061668;28;19951;-96
2022/08/21 00:17:59;;;;;;;;;;;20.60;83.20;;;;;;5080047;28;19944;-95
2022/08/21 00:20:25;;;;;;;;;;;20.60;83.40;;;;;;5079435;28;19942;-96
2022/08/21 00:22:51;;;;;;;;;;;20.60;83.00;;;;;;5079239;28;19995;-96
2022/08/21 00:25:17;;;;;;;;;;;20.60;83.70;;;;;;5079191;28;19946;-96
2022/08/21 00:27:46;;;;;;;;;;;20.50;83.60;;;;;;5079948;28;19940;-96
2022/08/21 00:30:12;;;;;;;;;;;20.60;83.60;;;;;;5061984;28;19981;-96
2022/08/21 00:32:39;;;;;;;;;;;20.50;84.10;;;;;;5080575;28;19943;-96
2022/08/21 00:35:07;;;;;;;;;;;20.50;83.90;;;;;;5062719;28;19945;-96
2022/08/21 00:37:33;;;;;;;;;;;20.50;83.40;;;;;;5063038;28;20438;-96
2022/08/21 00:39:59;;;;;;;;;;;20.50;83.20;;;;;;5081109;28;19948;-96
2022/08/21 00:42:27;;;;;;;;;;;20.30;83.30;;;;;;5080074;28;19935;-96
2022/08/21 00:44:53;;;;;;;;;;;20.30;83.10;;;;;;5062120;28;19949;-96
2022/08/21 00:47:19;;;;;;;;;;;20.40;83.20;;;;;;5079244;28;19939;-96
2022/08/21 00:49:45;;;;;;;;;;;20.40;83.50;;;;;;5079204;28;19957;-95
2022/08/21 00:52:14;;;;;;;;;;;20.30;83.90;;;;;;5079509;28;19944;-95
2022/08/21 00:54:40;;;;;;;;;;;20.30;83.50;;;;;;5080212;28;19987;-96
2022/08/21 00:57:13;;;;;;;;;;;20.30;83.00;;;;;;5079845;28;19943;-95
2022/08/21 00:59:39;;;;;;;;;;;20.30;82.80;;;;;;5080117;28;19935;-96
2022/08/21 01:02:07;;;;;;;;;;;20.40;82.90;;;;;;5080789;28;20408;-96
2022/08/21 01:04:33;;;;;;;;;;;20.40;82.80;;;;;;5061646;28;20394;-96
2022/08/21 01:06:58;;;;;;;;;;;20.40;82.50;;;;;;5061829;28;19945;-96
2022/08/21 01:09:24;;;;;;;;;;;20.40;83.50;;;;;;5079724;28;19960;-96
2022/08/21 01:11:51;;;;;;;;;;;20.30;83.50;;;;;;5078888;28;20049;-95
2022/08/21 01:14:19;;;;;;;;;;;20.40;83.20;;;;;;5079068;28;20068;-96
2022/08/21 01:16:48;;;;;;;;;;;20.40;82.90;;;;;;5079089;28;19940;-96
2022/08/21 01:19:14;;;;;;;;;;;20.30;83.10;;;;;;5079978;28;19936;-96
2022/08/21 01:21:40;;;;;;;;;;;20.30;83.50;;;;;;5090400;22;19976;-96
2022/08/21 01:24:06;;;;;;;;;;;20.20;84.00;;;;;;5098708;28;19989;-96
2022/08/21 01:26:34;;;;;;;;;;;20.10;84.40;;;;;;5080722;28;20010;-96
2022/08/21 01:29:03;;;;;;;;;;;20.10;84.60;;;;;;5080396;28;20008;-96
2022/08/21 01:31:29;;;;;;;;;;;20.00;84.50;;;;;;5097570;28;20358;-96
2022/08/21 01:33:55;;;;;;;;;;;19.90;84.80;;;;;;5098806;28;20418;-96
2022/08/21 01:36:21;;;;;;;;;;;20.00;84.60;;;;;;5098627;28;19936;-96
2022/08/21 01:38:52;;;;;;;;;;;20.00;84.40;;;;;;5098509;28;19940;-96
2022/08/21 01:41:18;;;;;;;;;;;19.90;84.60;;;;;;5098843;28;19970;-96
2022/08/21 01:43:44;;;;;;;;;;;19.80;84.90;;;;;;5097943;28;19985;-96
2022/08/21 01:46:10;;;;;;;;;;;19.60;85.40;;;;;;5080005;28;19947;-96
2022/08/21 01:48:36;;;;;;;;;;;19.50;85.90;;;;;;5098617;28;20030;-96
2022/08/21 01:51:02;;;;;;;;;;;19.40;86.10;;;;;;5098918;28;19986;-96
2022/08/21 01:53:27;;;;;;;;;;;19.40;86.10;;;;;;5080219;28;19949;-96
2022/08/21 01:55:53;;;;;;;;;;;19.40;86.10;;;;;;5097242;28;20309;-96
2022/08/21 01:58:19;;;;;;;;;;;19.40;86.30;;;;;;5079104;28;19944;-96
2022/08/21 02:00:44;;;;;;;;;;;19.50;86.30;;;;;;5097221;28;19942;-96
2022/08/21 02:03:10;;;;;;;;;;;19.50;86.40;;;;;;5097753;28;20086;-96
2022/08/21 02:05:36;;;;;;;;;;;19.60;86.10;;;;;;5097423;28;19949;-96
2022/08/21 02:08:01;;;;;;;;;;;19.50;85.90;;;;;;5074522;28;20257;-96
2022/08/21 02:10:28;;;;;;;;;;;19.50;85.80;;;;;;5079973;28;19968;-96
2022/08/21 02:12:55;;;;;;;;;;;19.50;85.80;;;;;;5098306;28;19940;-96
2022/08/21 02:15:20;;;;;;;;;;;19.50;85.80;;;;;;5078104;28;19948;-95
2022/08/21 02:17:57;;;;;;;;;;;19.60;85.60;;;;;;5093541;28;19987;-96
2022/08/21 02:20:24;;;;;;;;;;;19.50;85.70;;;;;;5096942;28;20008;-96
2022/08/21 02:22:50;;;;;;;;;;;19.40;85.90;;;;;;5079713;28;19947;-96
2022/08/21 02:25:17;;;;;;;;;;;19.30;86.20;;;;;;5079353;28;20351;-96
2022/08/21 02:27:44;;;;;;;;;;;19.30;86.30;;;;;;5079061;28;19963;-96
2022/08/21 02:30:28;;;;;;;;;;;19.30;86.40;;;;;;5096931;28;19998;-96
2022/08/21 02:32:54;;;;;;;;;;;19.30;85.90;;;;;;5097124;28;19946;-96
2022/08/21 02:35:20;;;;;;;;;;;19.30;86.20;;;;;;5097233;28;19945;-96
2022/08/21 02:37:48;;;;;;;;;;;19.30;86.00;;;;;;5097747;28;19943;-96
2022/08/21 02:40:17;;;;;;;;;;;19.40;85.90;;;;;;5097688;28;20007;-96
2022/08/21 02:42:43;;;;;;;;;;;19.30;86.10;;;;;;5078731;28;20175;-96
2022/08/21 02:45:09;;;;;;;;;;;19.30;86.10;;;;;;5097374;28;19943;-96
2022/08/21 02:47:35;;;;;;;;;;;19.30;86.10;;;;;;5096581;28;19936;-96
2022/08/21 02:50:01;;;;;;;;;;;19.20;86.20;;;;;;5097047;28;19959;-96
2022/08/21 02:52:26;;;;;;;;;;;19.20;86.40;;;;;;5100671;28;20190;-96
2022/08/21 02:54:52;;;;;;;;;;;19.20;86.50;;;;;;5100214;28;20011;-96
2022/08/21 02:57:17;;;;;;;;;;;19.10;86.50;;;;;;5099541;28;19937;-96
2022/08/21 02:59:43;;;;;;;;;;;18.80;87.10;;;;;;5099033;28;19954;-96
2022/08/21 03:02:10;;;;;;;;;;;18.80;87.60;;;;;;5081133;28;20389;-96
2022/08/21 03:04:36;;;;;;;;;;;18.80;87.20;;;;;;5099169;28;19988;-96
2022/08/21 03:07:02;;;;;;;;;;;18.90;86.50;;;;;;5077821;28;19947;-96
2022/08/21 03:09:28;;;;;;;;;;;18.80;86.20;;;;;;5097416;28;19966;-96
2022/08/21 03:11:53;;;;;;;;;;;18.90;86.10;;;;;;5081218;28;19998;-96
2022/08/21 03:14:19;;;;;;;;;;;19.00;86.10;;;;;;5099990;28;19946;-96
2022/08/21 03:16:45;;;;;;;;;;;19.00;85.90;;;;;;5099701;28;19972;-96
2022/08/21 03:19:10;;;;;;;;;;;19.10;86.10;;;;;;5099978;28;19976;-96
2022/08/21 03:21:36;;;;;;;;;;;19.10;85.60;;;;;;5099215;28;20023;-95
2022/08/21 03:24:02;;;;;;;;;;;19.10;85.80;;;;;;5080960;28;19988;-96
2022/08/21 03:26:28;;;;;;;;;;;19.00;86.30;;;;;;5098561;28;19957;-96
2022/08/21 03:28:54;;;;;;;;;;;18.80;87.00;;;;;;5098928;28;20163;-96
2022/08/21 03:31:21;;;;;;;;;;;18.80;87.10;;;;;;5080923;28;20048;-96
2022/08/21 03:33:46;;;;;;;;;;;18.70;87.10;;;;;;5098991;28;20440;-96
2022/08/21 03:36:12;;;;;;;;;;;18.70;87.30;;;;;;5098869;28;20025;-95
2022/08/21 03:38:38;;;;;;;;;;;18.60;87.50;;;;;;5080204;28;19946;-96
2022/08/21 03:41:04;;;;;;;;;;;18.60;87.80;;;;;;5098889;28;20312;-96
2022/08/21 03:43:30;;;;;;;;;;;18.50;87.90;;;;;;5098135;28;19944;-96
2022/08/21 03:45:56;;;;;;;;;;;18.30;88.40;;;;;;5097745;28;19948;-96
2022/08/21 03:48:21;;;;;;;;;;;18.30;88.20;;;;;;5098209;28;19948;-96
2022/08/21 03:50:49;;;;;;;;;;;18.30;87.80;;;;;;5098581;28;19960;-96
2022/08/21 03:53:15;;;;;;;;;;;18.30;87.70;;;;;;5079754;28;19944;-96
2022/08/21 03:55:41;;;;;;;;;;;18.30;87.70;;;;;;5098266;28;20053;-96
2022/08/21 03:58:06;;;;;;;;;;;18.30;87.60;;;;;;5097504;28;19941;-96
2022/08/21 04:00:32;;;;;;;;;;;18.30;87.50;;;;;;5097120;28;19941;-96
2022/08/21 04:02:58;;;;;;;;;;;18.20;87.50;;;;;;5078790;28;19944;-96
2022/08/21 04:05:29;;;;;;;;;;;18.10;87.70;;;;;;5097155;28;19936;-96
2022/08/21 04:07:59;;;;;;;;;;;18.10;87.90;;;;;;5091867;28;19940;-96
2022/08/21 04:10:26;;;;;;;;;;;18.10;88.10;;;;;;5097683;28;19960;-96
2022/08/21 04:12:52;;;;;;;;;;;18.20;87.90;;;;;;5097441;28;19947;-96
2022/08/21 04:15:18;;;;;;;;;;;18.20;87.70;;;;;;5078705;28;19941;-96
2022/08/21 04:17:44;;;;;;;;;;;18.20;87.30;;;;;;5096662;28;19950;-96
2022/08/21 04:20:09;;;;;;;;;;;18.20;87.10;;;;;;5096836;28;19999;-96
2022/08/21 04:22:35;;;;;;;;;;;18.20;87.10;;;;;;5096818;28;19996;-96
2022/08/21 04:25:01;;;;;;;;;;;18.30;87.50;;;;;;5096903;28;20035;-96
2022/08/21 04:27:26;;;;;;;;;;;18.20;87.30;;;;;;5079648;28;19943;-96
2022/08/21 04:29:52;;;;;;;;;;;18.10;88.00;;;;;;5097794;28;20380;-96
2022/08/21 04:32:24;;;;;;;;;;;18.10;88.40;;;;;;5097207;28;19939;-96
2022/08/21 04:34:50;;;;;;;;;;;17.90;88.30;;;;;;5097462;28;20035;-96
2022/08/21 04:37:15;;;;;;;;;;;17.90;88.20;;;;;;5097632;28;19982;-96
2022/08/21 04:39:41;;;;;;;;;;;18.00;88.00;;;;;;5096981;28;19952;-96
2022/08/21 04:42:07;;;;;;;;;;;18.00;88.10;;;;;;5097173;28;19951;-96
2022/08/21 04:44:33;;;;;;;;;;;18.00;88.20;;;;;;5097389;28;19978;-96
2022/08/21 04:46:58;;;;;;;;;;;18.10;88.20;;;;;;5079582;28;19948;-96
2022/08/21 04:49:24;;;;;;;;;;;18.30;87.90;;;;;;5078945;28;20064;-96
2022/08/21 04:51:50;;;;;;;;;;;18.30;87.50;;;;;;5079335;28;20312;-96
2022/08/21 04:54:22;;;;;;;;;;;18.30;87.40;;;;;;5096966;28;20312;-96
2022/08/21 04:56:48;;;;;;;;;;;18.40;87.40;;;;;;5097015;28;19945;-96
2022/08/21 04:59:16;;;;;;;;;;;18.40;86.90;;;;;;5096748;28;19970;-96
2022/08/21 05:01:42;;;;;;;;;;;18.40;86.80;;;;;;5097215;28;19940;-96
2022/08/21 05:04:10;;;;;;;;;;;18.40;87.30;;;;;;5096755;28;19984;-96
2022/08/21 05:06:38;;;;;;;;;;;18.40;87.40;;;;;;5094637;28;20147;-96
2022/08/21 05:09:04;;;;;;;;;;;18.40;87.50;;;;;;5092497;28;20015;-96
2022/08/21 05:11:30;;;;;;;;;;;18.50;87.40;;;;;;5096454;28;19942;-96
2022/08/21 05:13:56;;;;;;;;;;;18.50;87.40;;;;;;5095512;28;19943;-96
2022/08/21 05:16:22;;;;;;;;;;;18.60;87.60;;;;;;5096106;28;19950;-96
2022/08/21 05:18:47;;;;;;;;;;;18.60;87.70;;;;;;5096309;28;19939;-96
2022/08/21 05:21:13;;;;;;;;;;;18.60;87.70;;;;;;5095534;28;20073;-96
2022/08/21 05:23:38;;;;;;;;;;;18.70;88.00;;;;;;5096398;28;20408;-96
2022/08/21 05:26:04;;;;;;;;;;;18.70;88.00;;;;;;5095802;28;19962;-96
2022/08/21 05:28:30;;;;;;;;;;;18.80;87.50;;;;;;5095836;28;19948;-96
2022/08/21 05:30:56;;;;;;;;;;;18.90;87.20;;;;;;5095708;28;20385;-96
2022/08/21 05:33:21;;;;;;;;;;;19.00;87.10;;;;;;5095174;28;19996;-96
2022/08/21 05:35:49;;;;;;;;;;;19.10;86.70;;;;;;5095860;28;20405;-96
2022/08/21 05:38:15;;;;;;;;;;;19.10;85.90;;;;;;5096369;28;19988;-96
2022/08/21 05:40:40;;;;;;;;;;;19.20;85.40;;;;;;5095820;28;19939;-96
2022/08/21 05:43:06;;;;;;;;;;;19.30;86.00;;;;;;5096966;28;20070;-96
2022/08/21 05:45:32;;;;;;;;;;;19.40;86.10;;;;;;5077885;28;20324;-96
2022/08/21 05:48:04;;;;;;;;;;;19.50;86.20;;;;;;5096319;28;19943;-96
2022/08/21 05:50:31;;;;;;;;;;;19.60;86.10;;;;;;5096916;28;20014;-96
2022/08/21 05:52:56;;;;;;;;;;;19.60;86.00;;;;;;5097786;28;19937;-96
2022/08/21 05:55:22;;;;;;;;;;;19.70;85.90;;;;;;5079748;28;19951;-96
2022/08/21 05:57:48;;;;;;;;;;;19.80;85.80;;;;;;5098740;28;19963;-96
2022/08/21 06:00:14;;;;;;;;;;;19.90;85.50;;;;;;5080411;28;19989;-96
2022/08/21 06:02:41;;;;;;;;;;;20.00;85.10;;;;;;5097794;28;20776;-96
2022/08/21 06:05:07;;;;;;;;;;;20.10;84.60;;;;;;5099119;28;19940;-96
2022/08/21 06:07:33;;;;;;;;;;;20.40;82.80;;;;;;5075605;28;19950;-95
2022/08/21 06:09:58;;;;;;;;;;;20.70;80.20;;;;;;5097824;28;19954;-96
2022/08/21 06:12:25;;;;;;;;;;;20.90;77.50;;;;;;5097989;28;19934;-96
2022/08/21 06:14:51;;;;;;;;;;;21.20;76.90;;;;;;5098728;28;19934;-96
2022/08/21 06:17:17;;;;;;;;;;;21.30;77.00;;;;;;5098542;28;19932;-96
2022/08/21 06:19:43;;;;;;;;;;;21.30;77.00;;;;;;5099631;28;19946;-96
2022/08/21 06:22:09;;;;;;;;;;;21.40;76.10;;;;;;5099281;28;19978;-96
2022/08/21 06:24:35;;;;;;;;;;;21.50;76.20;;;;;;5099217;28;19948;-96
2022/08/21 06:27:05;;;;;;;;;;;21.50;76.20;;;;;;5100409;28;20035;-96
2022/08/21 06:29:32;;;;;;;;;;;21.60;75.80;;;;;;5083141;28;20031;-96
2022/08/21 06:31:57;;;;;;;;;;;21.60;76.00;;;;;;5083501;28;20038;-96
2022/08/21 06:34:23;;;;;;;;;;;21.70;75.60;;;;;;5101310;28;19993;-96
2022/08/21 06:36:49;;;;;;;;;;;21.80;74.70;;;;;;5083164;28;19950;-96
2022/08/21 06:39:14;;;;;;;;;;;21.90;74.00;;;;;;5083546;28;20008;-96
2022/08/21 06:41:40;;;;;;;;;;;21.90;72.10;;;;;;5083250;28;20035;-96
2022/08/21 06:44:06;;;;;;;;;;;22.00;71.80;;;;;;5082585;28;20378;-96
2022/08/21 06:46:32;;;;;;;;;;;22.20;71.00;;;;;;5100660;28;20193;-96
2022/08/21 06:48:58;;;;;;;;;;;22.30;70.70;;;;;;5100310;28;20356;-96
2022/08/21 06:51:27;;;;;;;;;;;22.40;69.30;;;;;;5083205;28;20085;-96
2022/08/21 06:53:52;;;;;;;;;;;22.50;68.00;;;;;;5082782;28;20408;-96
2022/08/21 06:56:18;;;;;;;;;;;22.60;67.30;;;;;;5083559;28;19952;-96
2022/08/21 06:58:44;;;;;;;;;;;22.70;67.40;;;;;;5102095;28;19949;-96
2022/08/21 07:01:10;;;;;;;;;;;22.80;67.60;;;;;;5084660;28;19948;-96
2022/08/21 07:03:38;;;;;;;;;;;22.80;67.90;;;;;;5084563;28;19943;-96
2022/08/21 07:06:04;;;;;;;;;;;22.90;65.90;;;;;;5084555;28;19945;-96
2022/08/21 07:08:30;;;;;;;;;;;22.90;66.80;;;;;;5081061;28;19941;-96
2022/08/21 07:10:56;;;;;;;;;;;23.10;66.90;;;;;;5101918;28;19964;-96
2022/08/21 07:13:22;;;;;;;;;;;23.20;65.30;;;;;;5102087;28;19943;-96
2022/08/21 07:15:48;;;;;;;;;;;23.30;65.90;;;;;;5102775;28;19942;-96
2022/08/21 07:18:14;;;;;;;;;;;23.40;65.90;;;;;;5085417;28;19945;-96
2022/08/21 07:20:40;;;;;;;;;;;23.50;66.70;;;;;;5104219;28;19950;-96
2022/08/21 07:23:07;;;;;;;;;;;23.50;66.50;;;;;;5105129;28;19944;-96
2022/08/21 07:25:33;;;;;;;;;;;23.60;64.90;;;;;;5087141;28;19943;-96
2022/08/21 07:27:59;;;;;;;;;;;23.70;63.80;;;;;;5087017;28;19943;-96
2022/08/21 07:30:25;;;;;;;;;;;23.80;64.80;;;;;;5086337;28;19962;-96
2022/08/21 07:32:51;;;;;;;;;;;23.90;62.20;;;;;;5104563;28;20023;-96
2022/08/21 07:35:17;;;;;;;;;;;24.00;61.40;;;;;;5104867;28;20116;-96
2022/08/21 07:37:43;;;;;;;;;;;24.10;60.50;;;;;;5108643;28;19949;-96
2022/08/21 07:40:09;;;;;;;;;;;24.10;61.30;;;;;;5091917;28;19945;-96
2022/08/21 07:42:39;;;;;;;;;;;24.20;60.80;;;;;;5090339;28;20018;-96
2022/08/21 07:45:05;;;;;;;;;;;24.30;61.90;;;;;;5090487;28;19941;-96
2022/08/21 07:47:31;;;;;;;;;;;24.50;60.60;;;;;;5109490;28;19943;-96
2022/08/21 07:49:57;;;;;;;;;;;24.60;58.80;;;;;;5109805;28;19962;-96
2022/08/21 07:52:23;;;;;;;;;;;24.70;59.10;;;;;;5106215;28;19940;-96
2022/08/21 07:54:49;;;;;;;;;;;24.90;58.20;;;;;;5088261;28;19948;-96
2022/08/21 07:57:15;;;;;;;;;;;24.90;58.40;;;;;;5107195;28;19940;-96
2022/08/21 07:59:41;;;;;;;;;;;25.00;61.60;;;;;;5106506;28;19939;-96
2022/08/21 08:02:07;;;;;;;;;;;25.00;58.50;;;;;;5108078;28;20142;-96
2022/08/21 08:04:33;;;;;;;;;;;25.10;58.30;;;;;;5107470;28;19941;-96
2022/08/21 08:06:59;;;;;;;;;;;25.20;59.30;;;;;;5105278;28;19935;-96
2022/08/21 08:09:24;;;;;;;;;;;25.20;60.40;;;;;;5086150;28;19972;-96
2022/08/21 08:11:50;;;;;;;;;;;25.20;59.40;;;;;;5087997;28;19947;-96
2022/08/21 08:14:15;;;;;;;;;;;25.20;58.40;;;;;;5106666;28;20050;-96
2022/08/21 08:16:41;;;;;;;;;;;25.30;59.00;;;;;;5088756;28;19946;-96
2022/08/21 08:19:07;;;;;;;;;;;25.30;58.90;;;;;;5107407;28;19984;-96
2022/08/21 08:21:34;;;;;;;;;;;25.40;59.70;;;;;;5089548;28;19980;-96
2022/08/21 08:24:00;;;;;;;;;;;25.50;59.70;;;;;;5089701;28;19944;-96
2022/08/21 08:26:26;;;;;;;;;;;25.50;59.40;;;;;;5089724;28;19960;-96
2022/08/21 08:28:51;;;;;;;;;;;25.60;58.40;;;;;;5108041;28;19956;-96
2022/08/21 08:31:17;;;;;;;;;;;25.60;59.60;;;;;;5090179;28;19946;-96
2022/08/21 08:33:43;;;;;;;;;;;25.70;59.70;;;;;;5090681;28;19941;-96
2022/08/21 08:36:13;;;;;;;;;;;25.80;58.50;;;;;;5091412;28;19944;-96
2022/08/21 08:38:39;;;;;;;;;;;25.80;57.90;;;;;;5109845;28;19938;-96
2022/08/21 08:41:16;;;;;;;;;;;25.80;58.60;;;;;;5091342;28;20355;-96
2022/08/21 08:43:48;;;;;;;;;;;25.90;59.80;;;;;;5090540;28;19962;-96
2022/08/21 08:46:15;;;;;;;;;;;26.00;56.40;;;;;;5090670;28;19954;-96
2022/08/21 08:49:04;;;;;;;;;;;26.20;57.50;;;;;;5090596;28;19942;-96
2022/08/21 08:51:30;;;;;;;;;;;26.20;57.60;;;;;;5097898;28;19981;-96
2022/08/21 08:54:00;;;;;;;;;;;26.30;57.50;;;;;;5090848;28;19945;-96
2022/08/21 08:56:28;;;;;;;;;;;26.40;58.60;;;;;;5109076;28;19968;-96
2022/08/21 08:58:57;;;;;;;;;;;26.50;56.70;;;;;;5108801;28;19970;-96
2022/08/21 09:01:22;;;;;;;;;;;26.60;59.20;;;;;;5109381;28;20399;-97
2022/08/21 09:03:49;;;;;;;;;;;26.70;58.30;;;;;;5108521;28;19948;-96
2022/08/21 09:06:24;;;;;;;;;;;26.70;57.20;;;;;;5109074;28;20400;-96
2022/08/21 09:08:59;;;;;;;;;;;26.80;57.50;;;;;;5107208;28;20008;-96
2022/08/21 09:11:44;;;;;;;;;;;26.90;57.10;;;;;;5109686;28;19948;-96
2022/08/21 09:14:28;;;;;;;;;;;27.00;57.70;;;;;;5091696;28;19944;-96
2022/08/21 09:16:54;;;;;;;;;;;27.10;54.00;;;;;;5092338;28;19996;-96
2022/08/21 09:19:25;;;;;;;;;;;27.20;54.00;;;;;;5111286;28;19937;-96
2022/08/21 09:21:51;;;;;;;;;;;27.20;54.50;;;;;;5034728;22;19977;-96
2022/08/21 09:24:30;;;;;;;;;;;27.30;54.50;;;;;;5089804;28;19953;-96
2022/08/21 09:27:05;;;;;;;;;;;27.50;55.20;;;;;;5004859;28;19966;-96
2022/08/21 09:29:32;;;;;;;;;;;27.60;52.60;;;;;;5003799;28;19981;-96
2022/08/21 09:31:58;;;;;;;;;;;27.70;54.00;;;;;;5005026;28;19953;-96
2022/08/21 09:34:27;;;;;;;;;;;27.70;53.20;;;;;;5004886;28;19980;-96
2022/08/21 09:36:53;;;;;;;;;;;27.80;51.80;;;;;;5003888;28;19944;-96
2022/08/21 09:39:25;;;;;;;;;;;27.70;49.00;;;;;;5004321;28;19987;-96
2022/08/21 09:42:01;;;;;;;;;;;27.80;50.00;;;;;;5004757;28;19945;-96
2022/08/21 09:44:28;;;;;;;;;;;27.90;53.20;;;;;;5005628;28;19948;-96
2022/08/21 09:46:54;;;;;;;;;;;28.00;54.00;;;;;;5006148;28;20019;-96
2022/08/21 09:49:27;;;;;;;;;;;28.10;54.40;;;;;;5005213;28;20351;-96
2022/08/21 09:51:54;;;;;;;;;;;28.10;51.40;;;;;;5006466;28;19999;-96
2022/08/21 09:54:24;;;;;;;;;;;28.20;54.70;;;;;;5004355;28;19948;-96
2022/08/21 10:00:09;;;;;;;;;;;28.50;52.70;;;;;;5006257;28;19985;-96
2022/08/21 10:02:38;;;;;;;;;;;28.50;53.10;;;;;;5005970;28;20019;-96
2022/08/21 10:05:09;;;;;;;;;;;28.50;52.20;;;;;;5005086;28;19951;-96
2022/08/21 10:07:36;;;;;;;;;;;28.70;51.50;;;;;;5000968;28;19942;-96
2022/08/21 10:10:02;;;;;;;;;;;28.60;51.90;;;;;;5002621;28;19965;-96
2022/08/21 10:12:51;;;;;;;;;;;28.60;51.60;;;;;;5004005;28;19982;-96
2022/08/21 10:15:40;;;;;;;;;;;28.70;52.90;;;;;;5002971;28;19946;-96
2022/08/21 10:18:20;;;;;;;;;;;28.80;51.30;;;;;;5005383;28;19974;-96
2022/08/21 10:20:59;;;;;;;;;;;28.80;49.30;;;;;;5002781;28;19977;-96
2022/08/21 10:23:33;;;;;;;;;;;28.90;48.10;;;;;;5004462;28;19942;-96
2022/08/21 10:25:59;;;;;;;;;;;28.90;49.40;;;;;;5002606;28;19960;-96
2022/08/21 10:29:03;;;;;;;;;;;28.90;48.10;;;;;;5005104;28;19947;-96
2022/08/21 10:31:48;;;;;;;;;;;29.00;47.50;;;;;;4968419;28;19955;-96
2022/08/21 10:34:15;;;;;;;;;;;29.00;46.50;;;;;;4985754;28;19973;-96
2022/08/21 10:37:00;;;;;;;;;;;29.10;47.40;;;;;;4991230;28;19952;-96
2022/08/21 10:39:32;;;;;;;;;;;29.20;48.10;;;;;;5006428;28;19944;-96
2022/08/21 10:42:21;;;;;;;;;;;29.30;45.90;;;;;;5007742;28;19943;-96
2022/08/21 10:44:53;;;;;;;;;;;29.30;44.80;;;;;;5038636;28;19956;-96
2022/08/21 10:47:32;;;;;;;;;;;29.30;46.50;;;;;;5008763;28;19946;-96
2022/08/21 10:50:19;;;;;;;;;;;29.50;46.50;;;;;;5006790;28;19970;-96
2022/08/21 10:52:57;;;;;;;;;;;29.40;47.30;;;;;;5007054;28;19949;-96
2022/08/21 10:55:29;;;;;;;;;;;29.50;45.10;;;;;;5008591;28;19962;-96
2022/08/21 10:57:58;;;;;;;;;;;29.60;44.80;;;;;;5010482;28;19948;-96
2022/08/21 11:00:28;;;;;;;;;;;29.60;43.10;;;;;;5006883;28;19948;-96
2022/08/21 11:03:06;;;;;;;;;;;29.70;44.10;;;;;;5009310;28;19952;-96
2022/08/21 11:05:44;;;;;;;;;;;29.80;42.10;;;;;;5007699;28;19998;-96
2022/08/21 11:08:26;;;;;;;;;;;29.90;42.80;;;;;;5004591;28;19949;-96
2022/08/21 11:10:52;;;;;;;;;;;30.00;41.20;;;;;;5007865;28;19987;-96
2022/08/21 11:13:24;;;;;;;;;;;30.00;43.90;;;;;;5025905;28;19946;-96
2022/08/21 11:15:56;;;;;;;;;;;30.10;45.00;;;;;;5011171;28;19941;-96
2022/08/21 11:18:32;;;;;;;;;;;30.20;42.60;;;;;;5012105;28;20007;-96
2022/08/21 11:20:57;;;;;;;;;;;30.40;41.70;;;;;;5012973;28;19988;-96
2022/08/21 11:23:52;;;;;;;;;;;30.60;44.10;;;;;;5015836;28;19957;-96
2022/08/21 11:26:30;;;;;;;;;;;30.80;44.10;;;;;;5013445;28;19963;-96
2022/08/21 11:29:01;;;;;;;;;;;31.10;42.60;;;;;;5014493;28;19944;-96
2022/08/21 11:31:36;;;;;;;;;;;31.00;42.00;;;;;;5013549;28;19948;-96
2022/08/21 11:34:21;;;;;;;;;;;31.20;42.80;;;;;;5012605;28;19943;-96
2022/08/21 11:36:47;;;;;;;;;;;31.10;39.70;;;;;;5014252;28;19969;-96
2022/08/21 11:39:21;;;;;;;;;;;31.30;42.80;;;;;;5014778;28;19964;-96
2022/08/21 11:42:11;;;;;;;;;;;31.60;41.80;;;;;;5015356;28;19956;-96
2022/08/21 11:44:50;;;;;;;;;;;31.80;38.20;;;;;;5015817;28;19987;-96
2022/08/21 11:47:26;;;;;;;;;;;32.00;40.20;;;;;;5015553;28;19956;-96
2022/08/21 11:50:01;;;;;;;;;;;32.30;39.60;;;;;;5014884;28;19986;-96
2022/08/21 11:52:45;;;;;;;;;;;32.50;38.00;;;;;;5014534;28;19952;-96
2022/08/21 11:55:17;;;;;;;;;;;32.50;37.40;;;;;;5015198;28;19952;-96
2022/08/21 11:58:00;;;;;;;;;;;32.60;36.10;;;;;;5015404;28;19947;-96
2022/08/21 12:00:33;;;;;;;;;;;32.60;38.80;;;;;;5013731;28;19945;-96
2022/08/21 12:03:09;;;;;;;;;;;32.70;37.40;;;;;;5015576;28;20393;-96
2022/08/21 12:05:45;;;;;;;;;;;32.90;35.10;;;;;;5016203;28;19978;-96
2022/08/21 12:08:29;;;;;;;;;;;33.20;36.10;;;;;;5016385;28;19954;-96
2022/08/21 12:11:03;;;;;;;;;;;33.60;36.50;;;;;;5017136;28;19963;-96
2022/08/21 12:13:33;;;;;;;;;;;33.60;33.80;;;;;;5016333;28;19956;-96
2022/08/21 12:16:28;;;;;;;;;;;33.70;36.50;;;;;;5016422;28;19972;-96
2022/08/21 12:19:15;;;;;;;;;;;33.30;34.40;;;;;;5016789;28;19935;-96
2022/08/21 12:22:00;;;;;;;;;;;33.10;35.80;;;;;;5015364;28;19995;-96
2022/08/21 12:24:33;;;;;;;;;;;33.20;36.80;;;;;;5016022;28;19953;-96
2022/08/21 12:27:12;;;;;;;;;;;33.40;34.40;;;;;;5062729;22;19976;-96
2022/08/21 12:29:39;;;;;;;;;;;34.00;33.70;;;;;;5092525;28;20006;-96
2022/08/21 12:32:22;;;;;;;;;;;34.60;31.30;;;;;;5091894;28;19947;-96
2022/08/21 12:34:58;;;;;;;;;;;34.70;31.90;;;;;;5075684;28;19998;-96
2022/08/21 12:38:00;;;;;;;;;;;35.20;32.50;;;;;;5095328;28;19949;-96
2022/08/21 12:40:29;;;;;;;;;;;36.10;30.10;;;;;;5053996;28;19999;-96
2022/08/21 12:43:03;;;;;;;;;;;36.60;32.20;;;;;;5071726;28;19944;-96
2022/08/21 12:45:33;;;;;;;;;;;37.30;29.70;;;;;;5076839;28;19967;-96
2022/08/21 12:48:02;;;;;;;;;;;37.60;27.70;;;;;;5074361;28;20273;-96
2022/08/21 12:50:40;;;;;;;;;;;37.20;29.50;;;;;;5089125;28;19963;-96
2022/08/21 12:53:18;;;;;;;;;;;37.30;28.50;;;;;;5090968;28;19937;-96
2022/08/21 12:55:46;;;;;;;;;;;38.00;29.30;;;;;;5093039;28;19935;-96
2022/08/21 12:58:23;;;;;;;;;;;39.40;26.50;;;;;;5092397;28;19972;-96
2022/08/21 13:00:55;;;;;;;;;;;40.60;24.80;;;;;;5073966;28;20422;-96
2022/08/21 13:03:22;;;;;;;;;;;41.40;24.40;;;;;;5089027;28;19944;-96
2022/08/21 13:05:51;;;;;;;;;;;41.80;25.60;;;;;;5067743;28;19970;-96
2022/08/21 13:08:18;;;;;;;;;;;41.80;25.50;;;;;;5084041;28;19949;-96
2022/08/21 13:10:46;;;;;;;;;;;40.90;25.10;;;;;;5065969;28;19963;-96
2022/08/21 13:13:18;;;;;;;;;;;39.50;26.10;;;;;;5082053;28;19942;-96
2022/08/21 13:15:45;;;;;;;;;;;38.80;26.50;;;;;;5083062;28;19948;-96
2022/08/21 13:18:19;;;;;;;;;;;38.30;27.00;;;;;;5082630;28;19941;-96
2022/08/21 13:20:45;;;;;;;;;;;37.90;26.30;;;;;;5084253;28;19950;-96
2022/08/21 13:23:20;;;;;;;;;;;38.60;25.60;;;;;;5067732;28;19940;-96
2022/08/21 13:25:46;;;;;;;;;;;40.40;24.60;;;;;;5090366;28;20056;-96
2022/08/21 13:28:14;;;;;;;;;;;41.80;22.60;;;;;;5064608;28;19992;-96
2022/08/21 13:30:44;;;;;;;;;;;40.90;23.40;;;;;;5062059;28;19960;-96
2022/08/21 13:33:12;;;;;;;;;;;40.50;24.80;;;;;;5065133;28;20464;-96
2022/08/21 13:35:48;;;;;;;;;;;40.40;25.20;;;;;;5066583;28;19965;-96
2022/08/21 13:38:15;;;;;;;;;;;40.20;24.50;;;;;;5066860;28;20022;-96
2022/08/21 13:40:48;;;;;;;;;;;40.30;25.60;;;;;;5064133;28;19944;-96
2022/08/21 13:43:16;;;;;;;;;;;40.10;26.40;;;;;;5065929;28;19998;-96
2022/08/21 13:45:44;;;;;;;;;;;40.20;24.90;;;;;;5067147;28;19943;-96
2022/08/21 13:48:09;;;;;;;;;;;40.80;24.10;;;;;;5067747;28;19946;-96
2022/08/21 13:50:37;;;;;;;;;;;41.70;22.10;;;;;;5062695;28;19967;-96
2022/08/21 13:53:04;;;;;;;;;;;41.80;22.90;;;;;;5065598;28;19942;-96
2022/08/21 13:55:38;;;;;;;;;;;42.20;22.20;;;;;;5067247;28;19956;-96
2022/08/21 13:58:04;;;;;;;;;;;43.10;21.90;;;;;;5068279;28;19972;-96
2022/08/21 14:00:34;;;;;;;;;;;43.60;21.40;;;;;;5067113;28;19970;-96
2022/08/21 14:03:02;;;;;;;;;;;43.80;22.90;;;;;;5063787;28;20031;-96
2022/08/21 14:05:31;;;;;;;;;;;41.90;23.10;;;;;;5065211;28;19952;-96
2022/08/21 14:08:08;;;;;;;;;;;41.80;24.50;;;;;;5063610;28;19947;-96
2022/08/21 14:10:36;;;;;;;;;;;41.70;24.20;;;;;;5063618;28;20009;-96
2022/08/21 14:13:03;;;;;;;;;;;41.90;24.30;;;;;;5063663;28;19937;-96
2022/08/21 14:15:30;;;;;;;;;;;41.90;24.30;;;;;;5062329;28;19983;-96
2022/08/21 14:18:16;;;;;;;;;;;41.90;23.30;;;;;;5062933;28;19946;-96
2022/08/21 14:20:42;;;;;;;;;;;41.40;24.00;;;;;;5062950;28;20014;-96
2022/08/21 14:23:08;;;;;;;;;;;41.60;24.20;;;;;;5062203;28;19939;-96
2022/08/21 14:25:43;;;;;;;;;;;41.40;23.60;;;;;;5063662;28;19950;-96
2022/08/21 14:28:19;;;;;;;;;;;41.50;24.20;;;;;;5081020;28;19976;-96
2022/08/21 14:30:46;;;;;;;;;;;42.00;24.10;;;;;;5065870;28;20011;-96